Time;durP1;ratioP1;P1;durP2;ratioP2;P2;SDS_P1;SDS_P2;PMS_P1;PMS_P2;Temp;Humidity;BMP_temperature;BMP_pressure;BME280_temperature;BME280_humidity;BME280_pressure;Samples;Min_cycle;Max_cycle;Signal;HPM_P1;HPM_P2
2021/07/16 00:01:27;;;;;;;13.27;6.95;;;17.40;99.90;;;;;;5007922;28;20203;-81
2021/07/16 00:03:54;;;;;;;10.95;5.35;;;17.30;99.90;;;;;;4993809;28;20208;-81
2021/07/16 00:06:21;;;;;;;13.27;5.80;;;17.30;99.90;;;;;;4987041;28;20651;-81
2021/07/16 00:08:47;;;;;;;13.35;5.43;;;17.30;99.90;;;;;;4993788;28;20211;-82
2021/07/16 00:11:14;;;;;;;12.30;5.30;;;17.30;99.90;;;;;;5007009;28;20207;-79
2021/07/16 00:13:41;;;;;;;10.88;5.90;;;17.30;99.90;;;;;;5007080;28;20214;-79
2021/07/16 00:16:11;;;;;;;16.02;6.30;;;17.20;99.90;;;;;;5007309;28;20206;-81
2021/07/16 00:18:38;;;;;;;11.18;4.93;;;17.20;99.90;;;;;;4987610;28;20626;-81
2021/07/16 00:21:05;;;;;;;9.65;4.65;;;17.20;99.90;;;;;;4987288;28;20235;-83
2021/07/16 00:23:32;;;;;;;16.35;4.97;;;17.20;99.90;;;;;;4987677;28;20214;-80
2021/07/16 00:25:59;;;;;;;11.68;4.80;;;17.20;99.90;;;;;;4987904;28;20215;-80
2021/07/16 00:28:26;;;;;;;12.85;4.50;;;17.20;99.90;;;;;;4987030;28;20222;-80
2021/07/16 00:30:53;;;;;;;16.27;5.25;;;17.20;99.90;;;;;;4988676;28;20208;-82
2021/07/16 00:33:21;;;;;;;14.05;5.20;;;17.20;99.90;;;;;;4988034;28;20204;-80
2021/07/16 00:35:48;;;;;;;13.48;5.45;;;17.20;99.90;;;;;;5007476;28;20210;-81
2021/07/16 00:38:15;;;;;;;12.23;5.53;;;17.10;99.90;;;;;;5006834;28;20192;-79
2021/07/16 00:40:42;;;;;;;11.75;4.95;;;17.10;99.90;;;;;;5007112;28;20239;-79
2021/07/16 00:43:10;;;;;;;13.35;4.18;;;17.10;99.90;;;;;;5004519;28;20207;-79
2021/07/16 00:45:36;;;;;;;10.02;5.10;;;17.10;99.90;;;;;;4987655;28;20204;-81
2021/07/16 00:48:03;;;;;;;12.50;5.10;;;17.10;99.90;;;;;;4986290;28;20204;-79
2021/07/16 00:50:34;;;;;;;14.52;5.18;;;17.10;99.90;;;;;;4986786;28;20212;-81
2021/07/16 00:53:02;;;;;;;10.68;4.22;;;17.10;99.90;;;;;;4986382;28;20208;-78
2021/07/16 00:55:30;;;;;;;9.50;4.60;;;17.00;99.90;;;;;;4985998;28;20204;-79
2021/07/16 00:57:57;;;;;;;11.45;4.05;;;17.00;99.90;;;;;;4986440;28;20306;-80
2021/07/16 01:00:24;;;;;;;12.20;4.63;;;17.00;99.90;;;;;;4986877;28;20227;-82
2021/07/16 01:02:51;;;;;;;13.05;4.55;;;17.00;99.90;;;;;;4986052;28;20203;-80
2021/07/16 01:05:20;;;;;;;11.90;4.47;;;16.90;99.90;;;;;;4986376;28;20224;-81
2021/07/16 01:07:50;;;;;;;11.52;4.20;;;16.90;99.90;;;;;;4986388;28;20605;-80
2021/07/16 01:10:19;;;;;;;12.27;4.10;;;16.90;99.90;;;;;;4985779;28;20249;-81
2021/07/16 01:12:51;;;;;;;15.88;4.40;;;16.80;99.90;;;;;;4986463;28;20208;-81
2021/07/16 01:15:19;;;;;;;11.57;4.00;;;16.90;99.90;;;;;;4986190;28;20265;-80
2021/07/16 01:17:46;;;;;;;16.38;4.68;;;16.80;99.90;;;;;;4986229;28;20200;-80
2021/07/16 01:20:15;;;;;;;14.70;4.32;;;16.80;99.90;;;;;;4986541;28;20223;-81
2021/07/16 01:22:44;;;;;;;15.85;4.47;;;16.80;99.90;;;;;;4986910;28;20200;-81
2021/07/16 01:25:15;;;;;;;9.73;4.07;;;16.80;99.90;;;;;;4985542;28;20295;-81
2021/07/16 01:27:45;;;;;;;14.80;4.22;;;16.80;99.90;;;;;;4984763;28;20238;-79
2021/07/16 01:30:14;;;;;;;9.70;3.80;;;16.80;99.90;;;;;;4984591;28;20586;-81
2021/07/16 01:32:41;;;;;;;12.15;4.25;;;16.80;99.90;;;;;;4986846;28;20656;-81
2021/07/16 01:35:10;;;;;;;13.77;4.20;;;16.90;99.90;;;;;;4986418;28;20207;-78
2021/07/16 01:37:36;;;;;;;12.10;4.43;;;16.90;99.90;;;;;;4986014;28;20204;-79
2021/07/16 01:40:06;;;;;;;16.58;4.50;;;16.90;99.90;;;;;;4986524;28;20247;-81
2021/07/16 01:42:39;;;;;;;13.52;4.45;;;16.80;99.90;;;;;;4986510;28;20210;-80
2021/07/16 01:45:08;;;;;;;14.18;3.85;;;16.80;99.90;;;;;;4984914;28;20627;-81
2021/07/16 01:47:35;;;;;;;13.77;3.70;;;16.80;99.90;;;;;;4986626;28;20215;-82
2021/07/16 01:50:03;;;;;;;12.93;4.00;;;16.80;99.90;;;;;;4988967;28;20208;-80
2021/07/16 01:52:30;;;;;;;16.77;4.00;;;16.80;99.90;;;;;;4987868;28;20204;-80
2021/07/16 01:54:57;;;;;;;13.55;4.03;;;16.90;99.90;;;;;;4990841;28;20207;-80
2021/07/16 01:57:24;;;;;;;13.52;4.00;;;16.80;99.90;;;;;;4990690;28;20210;-79
2021/07/16 01:59:52;;;;;;;15.25;4.22;;;16.80;99.90;;;;;;4987211;28;20895;-81
2021/07/16 02:02:19;;;;;;;14.93;4.00;;;16.90;99.90;;;;;;4986278;28;20223;-77
2021/07/16 02:04:45;;;;;;;16.60;4.45;;;16.90;99.90;;;;;;4985942;28;20212;-79
2021/07/16 02:07:12;;;;;;;20.55;4.53;;;16.90;99.90;;;;;;4985248;28;20497;-80
2021/07/16 02:09:39;;;;;;;16.52;4.53;;;16.90;99.90;;;;;;4993923;28;20592;-81
2021/07/16 02:12:07;;;;;;;9.73;3.40;;;16.90;99.90;;;;;;5006104;28;20203;-79
2021/07/16 02:14:34;;;;;;;11.55;3.53;;;16.90;99.90;;;;;;5005600;28;20674;-80
2021/07/16 02:17:02;;;;;;;15.93;4.53;;;16.80;99.90;;;;;;5005156;28;20766;-78
2021/07/16 02:19:34;;;;;;;18.85;4.07;;;16.80;99.90;;;;;;4995852;28;20211;-81
2021/07/16 02:22:01;;;;;;;16.05;4.63;;;16.90;99.90;;;;;;4985741;28;20192;-79
2021/07/16 02:24:28;;;;;;;12.88;4.10;;;16.90;99.90;;;;;;4986009;28;20231;-79
2021/07/16 02:26:54;;;;;;;14.25;3.47;;;16.80;99.90;;;;;;4985776;28;20215;-78
2021/07/16 02:29:21;;;;;;;11.50;3.50;;;16.80;99.90;;;;;;5002431;28;20221;-79
2021/07/16 02:31:50;;;;;;;16.47;4.30;;;16.80;99.90;;;;;;4999681;28;20203;-79
2021/07/16 02:34:19;;;;;;;12.43;3.47;;;16.80;99.90;;;;;;4984969;28;20298;-79
2021/07/16 02:36:45;;;;;;;15.32;3.53;;;16.80;99.90;;;;;;4985997;28;20200;-80
2021/07/16 02:39:12;;;;;;;14.55;4.15;;;16.80;99.90;;;;;;4985737;28;20208;-81
2021/07/16 02:41:39;;;;;;;9.00;3.60;;;16.80;99.90;;;;;;4985182;28;20239;-79
2021/07/16 02:44:06;;;;;;;13.13;3.78;;;16.80;99.90;;;;;;4986529;28;20204;-80
2021/07/16 02:46:33;;;;;;;11.77;3.20;;;16.80;99.90;;;;;;4986098;28;20234;-78
2021/07/16 02:49:00;;;;;;;13.43;4.22;;;16.70;99.90;;;;;;4985181;28;20211;-78
2021/07/16 02:51:28;;;;;;;13.05;3.95;;;16.70;99.90;;;;;;4985485;28;21069;-81
2021/07/16 02:53:54;;;;;;;10.03;3.67;;;16.70;99.90;;;;;;4985452;28;20212;-79
2021/07/16 02:56:23;;;;;;;11.95;3.55;;;16.70;99.90;;;;;;4984853;28;20206;-80
2021/07/16 02:58:50;;;;;;;14.23;4.10;;;16.70;99.90;;;;;;4985552;28;20269;-81
2021/07/16 03:01:16;;;;;;;8.68;3.10;;;16.80;99.90;;;;;;4985399;28;20550;-80
2021/07/16 03:03:44;;;;;;;13.25;4.38;;;16.70;99.90;;;;;;4988796;28;20204;-81
2021/07/16 03:06:10;;;;;;;13.00;3.90;;;16.70;99.90;;;;;;4988539;28;20242;-80
2021/07/16 03:08:39;;;;;;;14.38;4.68;;;16.70;99.90;;;;;;4988413;28;20210;-79
2021/07/16 03:11:05;;;;;;;14.95;3.97;;;16.70;99.90;;;;;;4987650;28;20755;-80
2021/07/16 03:13:32;;;;;;;11.43;3.63;;;16.70;99.90;;;;;;4995224;28;20226;-79
2021/07/16 03:15:59;;;;;;;12.68;3.83;;;16.70;99.90;;;;;;5006007;28;20204;-80
2021/07/16 03:18:26;;;;;;;13.77;4.43;;;16.70;99.90;;;;;;5006136;28;20208;-81
2021/07/16 03:20:53;;;;;;;12.63;3.88;;;16.70;99.90;;;;;;5000494;28;20258;-83
2021/07/16 03:23:21;;;;;;;13.05;4.03;;;16.60;99.90;;;;;;4986287;28;20204;-83
2021/07/16 03:25:49;;;;;;;14.18;3.50;;;16.70;99.90;;;;;;4986215;28;20596;-81
2021/07/16 03:28:18;;;;;;;13.47;3.40;;;16.60;99.90;;;;;;4986241;28;20209;-82
2021/07/16 03:30:44;;;;;;;11.10;3.33;;;16.60;99.90;;;;;;5018396;23;20650;-82
2021/07/16 03:33:11;;;;;;;18.77;4.63;;;16.60;99.90;;;;;;5028423;28;20502;-81
2021/07/16 03:35:38;;;;;;;15.43;4.43;;;16.60;99.90;;;;;;5038326;28;20194;-81
2021/07/16 03:38:05;;;;;;;13.07;4.60;;;16.50;99.90;;;;;;5032931;28;20209;-82
2021/07/16 03:40:32;;;;;;;18.77;4.57;;;16.60;99.90;;;;;;5028681;28;20866;-81
2021/07/16 03:43:01;;;;;;;17.85;4.38;;;16.50;99.90;;;;;;5028344;28;20232;-82
2021/07/16 03:45:28;;;;;;;14.33;4.53;;;16.50;99.90;;;;;;5027996;28;20198;-82
2021/07/16 03:47:55;;;;;;;18.40;4.57;;;16.50;99.90;;;;;;5028464;28;20289;-83
2021/07/16 03:50:23;;;;;;;18.70;4.32;;;16.50;99.90;;;;;;5028785;28;20297;-81
2021/07/16 03:52:50;;;;;;;16.23;3.95;;;16.40;99.90;;;;;;5028509;28;20206;-81
2021/07/16 03:55:17;;;;;;;17.33;4.27;;;16.50;99.90;;;;;;5028489;28;20210;-82
2021/07/16 03:57:46;;;;;;;9.83;3.73;;;16.50;99.90;;;;;;5028022;28;20203;-82
2021/07/16 04:00:17;;;;;;;15.30;4.00;;;16.50;99.90;;;;;;5033449;28;20201;-81
2021/07/16 04:02:44;;;;;;;17.83;4.97;;;16.50;99.90;;;;;;5048291;28;20557;-82
2021/07/16 04:05:12;;;;;;;17.77;4.03;;;16.40;99.90;;;;;;5046475;28;20451;-83
2021/07/16 04:07:45;;;;;;;14.10;4.10;;;16.50;99.90;;;;;;5048522;28;20209;-81
2021/07/16 04:10:13;;;;;;;17.63;3.88;;;16.50;99.90;;;;;;5030713;28;20211;-80
2021/07/16 04:12:40;;;;;;;16.80;4.57;;;16.50;99.90;;;;;;5035457;28;20237;-80
2021/07/16 04:15:09;;;;;;;18.20;3.90;;;16.50;99.90;;;;;;5046816;28;20244;-81
2021/07/16 04:17:37;;;;;;;14.90;4.13;;;16.50;99.90;;;;;;5051996;28;20536;-82
2021/07/16 04:20:05;;;;;;;16.20;3.87;;;16.50;99.90;;;;;;5058026;28;20194;-81
2021/07/16 04:22:31;;;;;;;16.83;4.07;;;16.50;99.90;;;;;;5039273;28;20214;-83
2021/07/16 04:24:58;;;;;;;14.23;4.57;;;16.50;99.90;;;;;;5031262;28;20203;-82
2021/07/16 04:27:25;;;;;;;15.53;5.07;;;16.50;99.90;;;;;;5029726;28;20205;-81
2021/07/16 04:29:52;;;;;;;17.57;5.40;;;16.50;99.90;;;;;;5028589;28;20823;-81
2021/07/16 04:32:19;;;;;;;25.23;4.63;;;16.50;99.90;;;;;;5028773;28;20196;-81
2021/07/16 04:34:47;;;;;;;15.57;4.77;;;16.60;99.90;;;;;;5028691;28;20198;-81
2021/07/16 04:37:14;;;;;;;14.97;3.97;;;16.60;99.90;;;;;;5027961;28;20214;-82
2021/07/16 04:39:40;;;;;;;16.53;4.67;;;16.60;99.90;;;;;;5028194;28;20210;-81
2021/07/16 04:42:08;;;;;;;17.13;4.37;;;16.60;99.90;;;;;;5026596;28;20223;-82
2021/07/16 04:44:35;;;;;;;12.95;4.78;;;16.60;99.90;;;;;;5027712;28;20658;-80
2021/07/16 04:47:02;;;;;;;20.00;4.43;;;16.60;99.90;;;;;;5027141;28;20191;-81
2021/07/16 04:49:29;;;;;;;13.97;4.33;;;16.70;99.90;;;;;;5029148;28;20210;-82
2021/07/16 04:51:59;;;;;;;15.68;4.15;;;16.80;99.90;;;;;;5046480;28;20202;-80
2021/07/16 04:54:26;;;;;;;13.40;3.83;;;16.70;99.90;;;;;;5045456;28;20233;-80
2021/07/16 04:56:53;;;;;;;20.13;5.47;;;16.80;99.90;;;;;;5045850;28;20850;-79
2021/07/16 04:59:20;;;;;;;18.45;4.90;;;16.80;99.90;;;;;;5046806;28;20226;-81
2021/07/16 05:01:48;;;;;;;15.07;3.90;;;16.80;99.90;;;;;;5045511;28;20241;-81
2021/07/16 05:04:15;;;;;;;17.30;4.10;;;16.90;99.90;;;;;;5045705;28;20216;-81
2021/07/16 05:06:42;;;;;;;16.05;4.15;;;17.00;99.90;;;;;;5046087;28;20217;-81
2021/07/16 05:09:10;;;;;;;18.13;4.70;;;17.00;99.90;;;;;;5025614;28;20206;-81
2021/07/16 05:11:37;;;;;;;12.38;3.90;;;17.00;99.90;;;;;;5025690;28;20195;-80
2021/07/16 05:14:04;;;;;;;14.60;4.18;;;17.00;99.90;;;;;;5025959;28;20425;-82
2021/07/16 05:16:30;;;;;;;15.50;4.60;;;17.10;99.90;;;;;;5024947;28;20210;-82
2021/07/16 05:18:57;;;;;;;24.05;6.10;;;17.20;99.90;;;;;;5025931;28;20207;-79
2021/07/16 05:21:24;;;;;;;14.93;4.40;;;17.30;99.90;;;;;;5026396;28;20235;-81
2021/07/16 05:23:51;;;;;;;10.45;3.60;;;17.50;99.90;;;;;;5026398;28;20195;-80
2021/07/16 05:26:19;;;;;;;18.92;4.82;;;17.60;99.90;;;;;;5025839;28;20206;-80
2021/07/16 05:28:49;;;;;;;14.40;4.72;;;17.70;99.90;;;;;;5025377;28;20206;-80
2021/07/16 05:31:16;;;;;;;19.23;5.03;;;17.70;99.90;;;;;;5025316;28;20234;-79
2021/07/16 05:33:43;;;;;;;16.00;5.78;;;17.70;99.90;;;;;;5025876;28;20210;-81
2021/07/16 05:36:10;;;;;;;19.15;4.15;;;17.60;99.90;;;;;;5028559;28;20222;-81
2021/07/16 05:38:37;;;;;;;13.75;4.45;;;17.60;99.90;;;;;;5037976;28;20210;-80
2021/07/16 05:41:05;;;;;;;20.45;4.60;;;17.60;99.90;;;;;;5028723;28;20218;-80
2021/07/16 05:43:33;;;;;;;21.92;4.75;;;17.50;99.90;;;;;;5028512;28;20527;-77
2021/07/16 05:46:02;;;;;;;13.93;4.20;;;17.60;99.90;;;;;;5028374;28;20319;-81
2021/07/16 05:48:31;;;;;;;16.23;4.32;;;17.60;99.90;;;;;;5026146;28;20592;-80
2021/07/16 05:50:58;;;;;;;24.60;4.45;;;17.80;99.90;;;;;;5025359;28;20210;-77
2021/07/16 05:53:25;;;;;;;15.45;4.32;;;18.10;99.90;;;;;;5026316;28;20217;-81
2021/07/16 05:55:52;;;;;;;18.33;4.85;;;18.20;99.90;;;;;;5025508;28;20210;-83
2021/07/16 05:58:18;;;;;;;12.85;3.88;;;18.30;99.90;;;;;;5025391;28;20621;-82
2021/07/16 06:00:47;;;;;;;16.02;4.20;;;18.30;99.90;;;;;;5024429;28;20198;-83
2021/07/16 06:03:13;;;;;;;16.20;4.50;;;18.40;99.90;;;;;;5024199;28;20225;-79
2021/07/16 06:05:41;;;;;;;15.25;3.83;;;18.40;99.90;;;;;;5025026;28;20230;-79
2021/07/16 06:08:08;;;;;;;20.63;4.32;;;18.30;99.90;;;;;;5024654;28;20289;-79
2021/07/16 06:10:35;;;;;;;20.60;4.70;;;18.30;99.90;;;;;;5025094;28;20217;-80
2021/07/16 06:13:02;;;;;;;15.35;4.15;;;18.30;99.90;;;;;;5024126;28;20199;-80
2021/07/16 06:15:29;;;;;;;13.35;4.38;;;18.30;99.90;;;;;;5025173;28;20209;-78
2021/07/16 06:17:57;;;;;;;14.40;4.28;;;18.30;99.90;;;;;;5025551;28;20261;-82
2021/07/16 06:20:24;;;;;;;20.88;5.25;;;18.40;99.90;;;;;;5024401;28;20341;-80
2021/07/16 06:22:51;;;;;;;14.55;4.18;;;18.40;99.90;;;;;;5025107;28;20230;-83
2021/07/16 06:25:18;;;;;;;16.73;4.93;;;18.40;99.90;;;;;;5024885;28;20210;-82
2021/07/16 06:27:46;;;;;;;14.77;4.40;;;18.40;99.90;;;;;;5024646;28;20202;-79
2021/07/16 06:30:15;;;;;;;17.90;4.80;;;18.40;99.90;;;;;;5024744;28;20241;-81
2021/07/16 06:32:42;;;;;;;16.63;4.07;;;18.50;99.90;;;;;;5024974;28;20275;-79
2021/07/16 06:35:11;;;;;;;16.90;4.55;;;18.40;99.90;;;;;;5025738;28;20213;-81
2021/07/16 06:37:38;;;;;;;15.95;4.97;;;18.50;99.90;;;;;;5024583;28;20213;-80
2021/07/16 06:40:07;;;;;;;14.60;4.30;;;18.60;99.90;;;;;;5024779;28;20201;-81
2021/07/16 06:42:34;;;;;;;16.65;4.15;;;18.70;99.90;;;;;;5029456;28;20232;-80
2021/07/16 06:45:01;;;;;;;16.33;5.20;;;18.70;99.90;;;;;;5044213;28;20201;-80
2021/07/16 06:47:28;;;;;;;12.15;4.63;;;18.70;99.90;;;;;;5044398;28;20217;-80
2021/07/16 06:49:55;;;;;;;13.55;3.78;;;18.90;99.90;;;;;;5045645;28;20213;-81
2021/07/16 06:52:23;;;;;;;20.30;4.70;;;18.80;99.90;;;;;;5036007;28;20207;-78
2021/07/16 06:54:50;;;;;;;17.80;4.88;;;18.90;99.90;;;;;;5024141;28;20214;-80
2021/07/16 06:57:16;;;;;;;13.90;4.85;;;18.90;99.90;;;;;;5042467;28;20210;-78
2021/07/16 06:59:43;;;;;;;16.40;4.53;;;19.00;99.90;;;;;;5053495;28;20217;-80
2021/07/16 07:02:10;;;;;;;17.13;4.50;;;19.00;99.90;;;;;;5046716;28;20226;-79
2021/07/16 07:04:37;;;;;;;19.60;4.57;;;19.10;99.90;;;;;;5046013;28;20204;-80
2021/07/16 07:07:04;;;;;;;13.82;4.07;;;19.20;99.90;;;;;;5029154;28;20226;-80
2021/07/16 07:09:32;;;;;;;16.88;4.88;;;19.30;99.90;;;;;;5028254;28;20871;-81
2021/07/16 07:11:59;;;;;;;14.23;5.00;;;19.30;99.90;;;;;;5029103;28;20203;-80
2021/07/16 07:14:26;;;;;;;19.73;4.60;;;19.30;99.90;;;;;;5028897;28;20211;-79
2021/07/16 07:16:53;;;;;;;17.17;4.88;;;19.30;99.90;;;;;;5028673;28;20198;-79
2021/07/16 07:19:20;;;;;;;20.63;5.78;;;19.30;99.90;;;;;;5028709;28;20218;-79
2021/07/16 07:21:47;;;;;;;14.20;5.40;;;19.30;99.90;;;;;;5029287;28;20249;-80
2021/07/16 07:24:13;;;;;;;15.00;4.45;;;19.30;99.90;;;;;;5028532;28;20210;-78
2021/07/16 07:26:41;;;;;;;16.02;4.97;;;19.40;99.90;;;;;;5028400;28;20210;-80
2021/07/16 07:29:08;;;;;;;13.52;4.20;;;19.60;99.90;;;;;;5027884;28;20198;-80
2021/07/16 07:31:35;;;;;;;19.60;4.63;;;19.70;99.90;;;;;;5026883;28;20239;-77
2021/07/16 07:37:25;;;;;;;18.92;4.45;;;19.80;99.90;;;;;;4987873;28;20193;-79
2021/07/16 07:39:52;;;;;;;13.80;4.60;;;19.80;99.90;;;;;;5048639;28;20202;-82
2021/07/16 07:42:21;;;;;;;15.57;5.07;;;19.70;99.90;;;;;;5044357;28;20226;-83
2021/07/16 07:44:48;;;;;;;17.02;4.90;;;19.70;99.90;;;;;;5028078;28;20232;-80
2021/07/16 07:47:15;;;;;;;19.88;4.32;;;19.70;99.90;;;;;;5028038;28;20210;-80
2021/07/16 07:49:42;;;;;;;17.60;4.78;;;19.70;99.90;;;;;;5027764;28;20661;-79
2021/07/16 07:52:11;;;;;;;14.57;4.43;;;19.60;99.90;;;;;;5024556;28;20211;-80
2021/07/16 07:54:38;;;;;;;13.98;4.88;;;19.70;99.90;;;;;;5028140;28;20202;-83
2021/07/16 07:57:06;;;;;;;12.68;4.13;;;19.90;99.90;;;;;;5027068;28;20207;-79
2021/07/16 07:59:34;;;;;;;13.15;4.30;;;20.00;99.90;;;;;;5027291;28;20211;-80
2021/07/16 08:02:01;;;;;;;18.67;5.65;;;20.20;99.90;;;;;;5027167;28;20230;-82
2021/07/16 08:04:28;;;;;;;18.65;4.93;;;20.10;99.90;;;;;;5026612;28;20203;-81
2021/07/16 08:06:54;;;;;;;14.88;4.75;;;20.00;99.90;;;;;;5027086;28;20222;-82
2021/07/16 08:09:21;;;;;;;19.00;5.20;;;20.00;99.90;;;;;;5026624;28;20195;-82
2021/07/16 08:11:48;;;;;;;12.32;4.00;;;19.90;99.90;;;;;;5026534;28;20542;-81
2021/07/16 08:14:15;;;;;;;15.75;4.60;;;19.80;99.90;;;;;;5026506;28;20202;-81
2021/07/16 08:16:46;;;;;;;15.52;4.47;;;19.90;99.90;;;;;;5034440;28;20203;-81
2021/07/16 08:19:17;;;;;;;13.48;4.47;;;20.00;99.90;;;;;;5027224;28;20674;-81
2021/07/16 08:21:45;;;;;;;19.73;5.75;;;20.10;99.90;;;;;;5027416;28;20211;-80
2021/07/16 08:24:12;;;;;;;24.08;5.43;;;20.20;99.90;;;;;;5026910;28;20298;-81
2021/07/16 08:26:38;;;;;;;15.63;4.75;;;20.20;99.90;;;;;;5027091;28;20214;-81
2021/07/16 08:29:05;;;;;;;14.63;4.97;;;20.30;99.90;;;;;;5027219;28;20210;-80
2021/07/16 08:31:32;;;;;;;17.17;4.70;;;20.40;99.90;;;;;;5026249;28;20238;-79
2021/07/16 08:34:01;;;;;;;14.25;4.63;;;20.50;99.90;;;;;;5026037;28;20202;-78
2021/07/16 08:36:27;;;;;;;12.43;4.45;;;20.60;99.90;;;;;;5026659;28;20293;-81
2021/07/16 08:38:54;;;;;;;20.48;5.88;;;20.60;99.90;;;;;;5027338;28;20207;-79
2021/07/16 08:41:22;;;;;;;14.15;4.43;;;21.00;99.90;;;;;;5025892;28;20206;-80
2021/07/16 08:43:50;;;;;;;18.63;4.95;;;21.40;99.90;;;;;;5025581;28;20237;-78
2021/07/16 08:46:17;;;;;;;16.05;4.40;;;21.40;99.90;;;;;;5025784;28;20206;-81
2021/07/16 08:48:47;;;;;;;22.50;5.07;;;21.20;99.90;;;;;;5026812;28;20209;-78
2021/07/16 08:51:18;;;;;;;17.38;4.88;;;21.10;99.90;;;;;;5025903;28;20296;-79
2021/07/16 08:53:47;;;;;;;18.70;5.15;;;21.20;99.90;;;;;;5025628;28;20191;-77
2021/07/16 08:56:15;;;;;;;19.13;4.97;;;21.40;99.90;;;;;;5025623;28;20217;-82
2021/07/16 08:58:42;;;;;;;20.55;5.82;;;21.30;99.90;;;;;;5026446;28;20252;-79
2021/07/16 09:01:10;;;;;;;16.88;4.97;;;21.50;99.90;;;;;;5024871;28;20209;-78
2021/07/16 09:03:56;;;;;;;22.13;5.38;;;21.50;99.90;;;;;;5025598;28;20215;-79
2021/07/16 09:06:43;;;;;;;24.75;5.80;;;21.50;99.90;;;;;;5025375;28;20226;-78
2021/07/16 09:09:10;;;;;;;23.85;6.18;;;21.40;99.90;;;;;;5023210;28;20205;-77
2021/07/16 09:11:39;;;;;;;16.38;5.22;;;21.30;99.90;;;;;;5043120;28;20214;-79
2021/07/16 09:14:06;;;;;;;15.27;5.32;;;21.50;99.90;;;;;;5045353;28;20279;-80
2021/07/16 09:16:33;;;;;;;14.13;4.80;;;21.60;99.90;;;;;;5045130;28;20434;-78
2021/07/16 09:19:00;;;;;;;24.65;5.97;;;21.60;99.90;;;;;;5035362;28;20214;-78
2021/07/16 09:21:27;;;;;;;17.80;5.22;;;21.90;99.90;;;;;;5024743;28;20949;-77
2021/07/16 09:23:55;;;;;;;18.92;5.60;;;22.10;99.90;;;;;;5025521;28;20218;-80
2021/07/16 09:26:25;;;;;;;17.27;4.95;;;22.00;99.90;;;;;;5024640;28;20207;-78
2021/07/16 09:28:53;;;;;;;18.65;5.20;;;21.90;99.90;;;;;;5024798;28;20287;-78
2021/07/16 09:31:23;;;;;;;19.42;5.18;;;21.90;99.90;;;;;;5024942;28;20238;-78
2021/07/16 09:33:53;;;;;;;19.00;5.03;;;22.00;99.90;;;;;;5025487;28;20209;-79
2021/07/16 09:36:29;;;;;;;15.07;5.00;;;22.20;99.90;;;;;;5035612;28;20214;-78
2021/07/16 09:38:59;;;;;;;21.98;5.60;;;22.40;99.90;;;;;;5025079;28;20205;-78
2021/07/16 09:41:26;;;;;;;27.60;5.65;;;22.40;99.90;;;;;;5025181;28;20288;-78
2021/07/16 09:43:59;;;;;;;12.95;4.72;;;22.30;99.90;;;;;;5025317;28;20229;-77
2021/07/16 09:46:26;;;;;;;19.58;5.50;;;22.20;99.90;;;;;;5025225;28;20230;-79
2021/07/16 09:48:53;;;;;;;17.25;5.20;;;22.30;99.90;;;;;;5024985;28;20222;-77
2021/07/16 09:51:23;;;;;;;19.77;6.15;;;22.40;99.90;;;;;;5023925;28;20603;-76
2021/07/16 09:53:51;;;;;;;15.20;4.97;;;22.30;99.90;;;;;;5024943;28;20207;-80
2021/07/16 09:56:22;;;;;;;22.52;5.50;;;22.30;99.90;;;;;;5029641;28;20732;-81
2021/07/16 09:58:51;;;;;;;17.63;5.60;;;22.60;99.90;;;;;;5044967;28;20213;-79
2021/07/16 10:01:18;;;;;;;12.27;4.18;;;22.90;99.90;;;;;;5044928;28;20512;-81
2021/07/16 10:03:44;;;;;;;20.00;5.43;;;23.10;99.90;;;;;;5045109;28;20836;-82
2021/07/16 10:06:15;;;;;;;19.73;5.32;;;22.90;99.90;;;;;;5044410;28;20213;-80
2021/07/16 10:08:43;;;;;;;12.77;4.78;;;22.70;99.90;;;;;;5044960;28;20631;-82
2021/07/16 10:11:11;;;;;;;14.65;5.15;;;23.00;99.90;;;;;;5026113;28;20296;-79
2021/07/16 10:13:41;;;;;;;22.35;4.88;;;23.40;99.90;;;;;;5037053;28;20295;-80
2021/07/16 10:16:08;;;;;;;21.30;5.72;;;23.60;99.90;;;;;;5044889;28;20202;-78
2021/07/16 10:18:35;;;;;;;21.67;5.85;;;23.40;99.90;;;;;;5036911;28;20210;-79
2021/07/16 10:21:02;;;;;;;18.58;5.65;;;23.30;99.90;;;;;;5026196;28;20210;-80
2021/07/16 10:23:29;;;;;;;17.75;5.55;;;22.90;99.90;;;;;;5024909;28;20928;-79
2021/07/16 10:25:56;;;;;;;14.80;5.13;;;22.90;99.90;;;;;;5023857;28;20589;-81
2021/07/16 10:28:31;;;;;;;18.25;5.00;;;23.00;99.90;;;;;;5025298;28;20207;-82
2021/07/16 10:30:59;;;;;;;18.02;5.05;;;22.90;99.90;;;;;;5025946;28;20766;-78
2021/07/16 10:33:38;;;;;;;19.45;5.55;;;23.00;99.90;;;;;;5024846;28;20501;-78
2021/07/16 10:36:10;;;;;;;16.35;5.20;;;23.00;99.90;;;;;;5025166;28;20212;-78
2021/07/16 10:38:36;;;;;;;18.15;4.65;;;22.80;99.90;;;;;;5053065;23;20958;-80
2021/07/16 10:41:03;;;;;;;21.92;5.80;;;22.90;99.90;;;;;;5038798;28;20210;-81
2021/07/16 10:43:42;;;;;;;17.80;5.03;;;23.10;99.90;;;;;;5028450;28;20249;-80
2021/07/16 10:46:30;;;;;;;19.00;5.38;;;23.20;99.90;;;;;;5027769;28;20960;-81
2021/07/16 10:48:57;;;;;;;14.75;4.78;;;23.30;99.90;;;;;;5028819;28;20623;-80
2021/07/16 10:51:25;;;;;;;15.32;5.03;;;23.60;99.90;;;;;;5029634;28;20201;-79
2021/07/16 10:53:53;;;;;;;14.77;4.60;;;23.60;99.90;;;;;;5049061;28;20210;-79
2021/07/16 10:56:20;;;;;;;21.73;5.05;;;23.80;99.90;;;;;;5048002;28;20225;-78
2021/07/16 10:58:50;;;;;;;18.20;5.70;;;23.70;99.90;;;;;;5050256;28;20213;-80
2021/07/16 11:01:32;;;;;;;21.33;5.80;;;23.70;99.90;;;;;;5039338;28;20209;-80
2021/07/16 11:04:01;;;;;;;19.70;4.88;;;23.70;99.90;;;;;;5027742;28;20311;-79
2021/07/16 11:06:51;;;;;;;15.60;5.60;;;23.80;99.90;;;;;;5028307;28;20218;-79
2021/07/16 11:09:45;;;;;;;16.95;5.22;;;23.80;99.90;;;;;;5027503;28;20207;-79
2021/07/16 11:12:27;;;;;;;18.42;4.97;;;23.90;99.90;;;;;;5028491;28;20207;-81
2021/07/16 11:14:55;;;;;;;16.45;4.70;;;24.20;99.90;;;;;;5028549;28;20194;-84
2021/07/16 11:17:36;;;;;;;16.80;4.70;;;24.20;99.90;;;;;;5028886;28;20209;-79
2021/07/16 11:20:08;;;;;;;16.10;4.70;;;24.00;99.90;;;;;;5027457;28;20205;-80
2021/07/16 11:22:35;;;;;;;15.73;4.60;;;24.00;99.90;;;;;;5027704;28;20206;-80
2021/07/16 11:25:03;;;;;;;18.30;5.15;;;24.00;99.90;;;;;;5028298;28;20193;-80
2021/07/16 11:27:29;;;;;;;16.33;4.20;;;24.00;99.90;;;;;;5027217;28;20230;-78
2021/07/16 11:29:56;;;;;;;20.52;5.43;;;23.90;99.90;;;;;;5027086;28;20206;-81
2021/07/16 11:32:25;;;;;;;19.70;5.28;;;24.10;99.90;;;;;;5028194;28;20317;-83
2021/07/16 11:34:56;;;;;;;19.13;4.97;;;24.20;99.90;;;;;;5027441;28;20273;-79
2021/07/16 11:37:28;;;;;;;19.20;5.40;;;24.30;99.90;;;;;;5026438;28;20744;-78
2021/07/16 11:40:00;;;;;;;18.73;4.78;;;24.30;99.90;;;;;;5027878;28;20207;-80
2021/07/16 11:42:27;;;;;;;9.73;4.57;;;24.30;99.90;;;;;;5026806;28;20198;-81
2021/07/16 11:44:54;;;;;;;16.45;4.90;;;24.40;99.90;;;;;;5028337;28;20203;-81
2021/07/16 11:47:23;;;;;;;17.25;4.75;;;24.10;99.90;;;;;;5027512;28;20210;-80
2021/07/16 11:49:51;;;;;;;22.70;6.10;;;24.00;99.90;;;;;;5025614;28;20645;-80
2021/07/16 11:52:22;;;;;;;14.05;5.05;;;24.10;99.90;;;;;;5027158;28;20210;-81
2021/07/16 11:54:52;;;;;;;18.95;5.45;;;24.20;99.90;;;;;;5027305;28;20850;-79
2021/07/16 11:57:19;;;;;;;18.70;4.55;;;24.00;99.90;;;;;;5026280;28;20823;-82
2021/07/16 11:59:50;;;;;;;17.85;4.88;;;23.90;99.90;;;;;;5027306;28;20232;-82
2021/07/16 12:02:19;;;;;;;16.67;4.93;;;23.80;99.90;;;;;;5026661;28;20214;-82
2021/07/16 12:04:47;;;;;;;18.30;5.63;;;23.80;99.90;;;;;;5030762;28;20241;-80
2021/07/16 12:07:14;;;;;;;19.10;5.10;;;23.80;99.90;;;;;;5031019;28;20206;-79
2021/07/16 12:09:44;;;;;;;14.02;4.32;;;24.10;99.90;;;;;;5029153;28;20198;-81
2021/07/16 12:12:14;;;;;;;17.98;5.57;;;24.20;99.90;;;;;;5027505;28;20198;-81
2021/07/16 12:14:55;;;;;;;20.40;5.47;;;24.50;99.90;;;;;;5028458;28;20199;-82
2021/07/16 12:17:24;;;;;;;17.02;5.63;;;24.70;99.90;;;;;;5028309;28;20599;-80
2021/07/16 12:19:52;;;;;;;17.65;5.03;;;24.70;99.90;;;;;;5027126;28;20203;-80
2021/07/16 12:22:24;;;;;;;13.15;4.20;;;24.50;99.90;;;;;;5026870;28;20210;-82
2021/07/16 12:24:53;;;;;;;17.58;4.63;;;24.50;99.90;;;;;;5046214;28;20230;-82
2021/07/16 12:27:21;;;;;;;21.58;6.43;;;24.60;99.90;;;;;;5044800;28;20673;-82
2021/07/16 12:29:56;;;;;;;23.05;6.72;;;24.60;99.90;;;;;;5027325;28;20221;-81
2021/07/16 12:32:33;;;;;;;15.85;5.18;;;24.60;99.90;;;;;;5026559;28;20229;-82
2021/07/16 12:35:00;;;;;;;15.65;4.93;;;24.50;99.90;;;;;;5026428;28;20198;-81
2021/07/16 12:37:37;;;;;;;14.40;5.55;;;24.30;99.90;;;;;;5026031;28;20246;-80
2021/07/16 12:40:07;;;;;;;18.02;6.05;;;24.10;99.90;;;;;;5024605;28;20248;-79
2021/07/16 12:42:35;;;;;;;21.05;5.10;;;24.10;99.90;;;;;;5026131;28;20218;-81
2021/07/16 12:45:08;;;;;;;21.85;5.68;;;24.00;99.90;;;;;;5026790;28;20257;-80
2021/07/16 12:47:46;;;;;;;18.95;5.28;;;24.10;99.90;;;;;;5026920;28;20199;-78